sensor_id;sensor_type;location;lat;lon;timestamp;P1;durP1;ratioP1;P2;durP2;ratioP2
78015;SDS011;67223;51.102;5.882;2023-04-30T00:01:25;1.13;;;1.03;;
78015;SDS011;67223;51.102;5.882;2023-04-30T00:03:50;0.93;;;0.93;;
78015;SDS011;67223;51.102;5.882;2023-04-30T00:06:15;2.00;;;1.80;;
78015;SDS011;67223;51.102;5.882;2023-04-30T00:08:41;2.30;;;1.57;;
78015;SDS011;67223;51.102;5.882;2023-04-30T00:11:06;7.30;;;3.63;;
78015;SDS011;67223;51.102;5.882;2023-04-30T00:13:32;4.30;;;1.20;;
78015;SDS011;67223;51.102;5.882;2023-04-30T00:15:57;1.13;;;1.13;;
78015;SDS011;67223;51.102;5.882;2023-04-30T00:18:22;1.00;;;1.00;;
78015;SDS011;67223;51.102;5.882;2023-04-30T00:20:48;7.53;;;2.37;;
78015;SDS011;67223;51.102;5.882;2023-04-30T00:23:15;1.08;;;1.00;;
78015;SDS011;67223;51.102;5.882;2023-04-30T00:25:41;1.50;;;1.40;;
78015;SDS011;67223;51.102;5.882;2023-04-30T00:28:06;2.73;;;1.43;;
78015;SDS011;67223;51.102;5.882;2023-04-30T00:30:32;1.07;;;1.07;;
78015;SDS011;67223;51.102;5.882;2023-04-30T00:32:57;2.15;;;1.42;;
78015;SDS011;67223;51.102;5.882;2023-04-30T00:35:22;8.10;;;1.60;;
78015;SDS011;67223;51.102;5.882;2023-04-30T00:37:48;1.63;;;1.40;;
78015;SDS011;67223;51.102;5.882;2023-04-30T00:40:13;1.37;;;1.30;;
78015;SDS011;67223;51.102;5.882;2023-04-30T00:42:39;1.70;;;1.60;;
78015;SDS011;67223;51.102;5.882;2023-04-30T00:45:04;1.10;;;1.10;;
78015;SDS011;67223;51.102;5.882;2023-04-30T00:47:30;1.20;;;1.10;;
78015;SDS011;67223;51.102;5.882;2023-04-30T00:49:56;1.33;;;1.23;;
78015;SDS011;67223;51.102;5.882;2023-04-30T00:52:22;1.23;;;1.17;;
78015;SDS011;67223;51.102;5.882;2023-04-30T00:54:48;1.67;;;1.57;;
78015;SDS011;67223;51.102;5.882;2023-04-30T00:57:14;1.25;;;1.20;;
78015;SDS011;67223;51.102;5.882;2023-04-30T00:59:40;1.42;;;1.33;;
78015;SDS011;67223;51.102;5.882;2023-04-30T01:02:06;1.90;;;1.40;;
78015;SDS011;67223;51.102;5.882;2023-04-30T01:04:32;1.10;;;1.08;;
78015;SDS011;67223;51.102;5.882;2023-04-30T01:06:58;2.00;;;1.80;;
78015;SDS011;67223;51.102;5.882;2023-04-30T01:09:26;1.58;;;1.48;;
78015;SDS011;67223;51.102;5.882;2023-04-30T01:12:04;2.15;;;1.63;;
78015;SDS011;67223;51.102;5.882;2023-04-30T01:14:56;1.33;;;1.23;;
78015;SDS011;67223;51.102;5.882;2023-04-30T01:20:02;1.67;;;1.57;;
78015;SDS011;67223;51.102;5.882;2023-04-30T01:22:31;1.20;;;1.10;;
78015;SDS011;67223;51.102;5.882;2023-04-30T01:30:33;2.08;;;1.88;;
78015;SDS011;67223;51.102;5.882;2023-04-30T01:33:00;2.73;;;2.03;;
78015;SDS011;67223;51.102;5.882;2023-04-30T01:46:41;1.97;;;1.77;;
78015;SDS011;67223;51.102;5.882;2023-04-30T01:49:55;1.98;;;1.58;;
78015;SDS011;67223;51.102;5.882;2023-04-30T01:52:17;1.13;;;1.13;;
78015;SDS011;67223;51.102;5.882;2023-04-30T01:55:00;1.48;;;1.38;;
78015;SDS011;67223;51.102;5.882;2023-04-30T01:57:32;1.45;;;1.35;;
78015;SDS011;67223;51.102;5.882;2023-04-30T02:00:02;3.37;;;2.37;;
78015;SDS011;67223;51.102;5.882;2023-04-30T02:02:28;6.32;;;1.95;;
78015;SDS011;67223;51.102;5.882;2023-04-30T02:04:54;2.65;;;1.73;;
78015;SDS011;67223;51.102;5.882;2023-04-30T02:07:26;2.07;;;1.60;;
78015;SDS011;67223;51.102;5.882;2023-04-30T02:10:02;1.30;;;1.20;;
78015;SDS011;67223;51.102;5.882;2023-04-30T02:12:28;2.67;;;1.77;;
78015;SDS011;67223;51.102;5.882;2023-04-30T02:14:54;2.67;;;1.83;;
78015;SDS011;67223;51.102;5.882;2023-04-30T02:17:19;1.83;;;1.73;;
78015;SDS011;67223;51.102;5.882;2023-04-30T02:19:45;1.10;;;1.10;;
78015;SDS011;67223;51.102;5.882;2023-04-30T02:22:10;1.77;;;1.67;;
78015;SDS011;67223;51.102;5.882;2023-04-30T02:24:36;1.50;;;1.40;;
78015;SDS011;67223;51.102;5.882;2023-04-30T02:27:01;1.70;;;1.60;;
78015;SDS011;67223;51.102;5.882;2023-04-30T02:29:26;1.70;;;1.60;;
78015;SDS011;67223;51.102;5.882;2023-04-30T02:31:52;1.77;;;1.40;;
78015;SDS011;67223;51.102;5.882;2023-04-30T02:34:17;2.10;;;1.90;;
78015;SDS011;67223;51.102;5.882;2023-04-30T02:36:43;1.70;;;1.60;;
78015;SDS011;67223;51.102;5.882;2023-04-30T02:39:08;2.30;;;2.10;;
78015;SDS011;67223;51.102;5.882;2023-04-30T02:41:34;14.27;;;1.93;;
78015;SDS011;67223;51.102;5.882;2023-04-30T02:44:00;2.35;;;1.65;;
78015;SDS011;67223;51.102;5.882;2023-04-30T02:46:25;2.70;;;2.47;;
78015;SDS011;67223;51.102;5.882;2023-04-30T02:48:51;5.10;;;2.30;;
78015;SDS011;67223;51.102;5.882;2023-04-30T02:51:16;3.33;;;2.22;;
78015;SDS011;67223;51.102;5.882;2023-04-30T02:53:41;1.70;;;1.60;;
78015;SDS011;67223;51.102;5.882;2023-04-30T02:56:07;2.27;;;1.93;;
78015;SDS011;67223;51.102;5.882;2023-04-30T02:58:32;2.03;;;1.83;;
78015;SDS011;67223;51.102;5.882;2023-04-30T03:03:33;5.57;;;2.42;;
78015;SDS011;67223;51.102;5.882;2023-04-30T03:05:58;2.40;;;1.60;;
78015;SDS011;67223;51.102;5.882;2023-04-30T03:08:24;1.73;;;1.63;;
78015;SDS011;67223;51.102;5.882;2023-04-30T03:10:50;3.92;;;2.40;;
78015;SDS011;67223;51.102;5.882;2023-04-30T03:13:16;2.53;;;2.17;;
78015;SDS011;67223;51.102;5.882;2023-04-30T03:15:42;1.50;;;1.40;;
78015;SDS011;67223;51.102;5.882;2023-04-30T03:18:08;1.50;;;1.40;;
78015;SDS011;67223;51.102;5.882;2023-04-30T03:20:34;2.22;;;2.03;;
78015;SDS011;67223;51.102;5.882;2023-04-30T03:23:00;2.30;;;2.00;;
78015;SDS011;67223;51.102;5.882;2023-04-30T03:25:25;3.08;;;2.03;;
78015;SDS011;67223;51.102;5.882;2023-04-30T03:27:51;2.47;;;2.27;;
78015;SDS011;67223;51.102;5.882;2023-04-30T03:30:16;1.27;;;1.27;;
78015;SDS011;67223;51.102;5.882;2023-04-30T03:32:41;3.00;;;2.33;;
78015;SDS011;67223;51.102;5.882;2023-04-30T03:35:07;7.60;;;2.63;;
78015;SDS011;67223;51.102;5.882;2023-04-30T03:37:32;1.57;;;1.47;;
78015;SDS011;67223;51.102;5.882;2023-04-30T03:39:58;2.53;;;2.33;;
78015;SDS011;67223;51.102;5.882;2023-04-30T03:42:23;1.73;;;1.63;;
78015;SDS011;67223;51.102;5.882;2023-04-30T03:44:49;2.00;;;1.70;;
78015;SDS011;67223;51.102;5.882;2023-04-30T03:47:15;1.92;;;1.70;;
78015;SDS011;67223;51.102;5.882;2023-04-30T03:49:40;3.03;;;2.47;;
78015;SDS011;67223;51.102;5.882;2023-04-30T03:52:06;3.53;;;2.43;;
78015;SDS011;67223;51.102;5.882;2023-04-30T03:54:31;2.35;;;2.13;;
78015;SDS011;67223;51.102;5.882;2023-04-30T03:56:58;2.50;;;1.67;;
78015;SDS011;67223;51.102;5.882;2023-04-30T03:59:24;1.95;;;1.80;;
78015;SDS011;67223;51.102;5.882;2023-04-30T04:01:49;3.08;;;1.83;;
78015;SDS011;67223;51.102;5.882;2023-04-30T04:04:15;2.47;;;2.28;;
78015;SDS011;67223;51.102;5.882;2023-04-30T04:06:41;1.70;;;1.60;;
78015;SDS011;67223;51.102;5.882;2023-04-30T04:09:07;1.98;;;1.88;;
78015;SDS011;67223;51.102;5.882;2023-04-30T04:11:32;4.73;;;2.40;;
78015;SDS011;67223;51.102;5.882;2023-04-30T04:13:59;3.42;;;2.47;;
78015;SDS011;67223;51.102;5.882;2023-04-30T04:16:25;2.43;;;2.23;;
78015;SDS011;67223;51.102;5.882;2023-04-30T04:18:51;1.77;;;1.67;;
78015;SDS011;67223;51.102;5.882;2023-04-30T04:21:16;3.63;;;3.33;;
78015;SDS011;67223;51.102;5.882;2023-04-30T04:23:42;1.52;;;1.42;;
78015;SDS011;67223;51.102;5.882;2023-04-30T04:26:08;2.30;;;2.10;;
78015;SDS011;67223;51.102;5.882;2023-04-30T04:28:34;1.90;;;1.77;;
78015;SDS011;67223;51.102;5.882;2023-04-30T04:31:01;2.42;;;2.22;;
78015;SDS011;67223;51.102;5.882;2023-04-30T04:33:27;1.52;;;1.42;;
78015;SDS011;67223;51.102;5.882;2023-04-30T04:35:52;2.77;;;2.03;;
78015;SDS011;67223;51.102;5.882;2023-04-30T04:38:18;3.05;;;2.53;;
78015;SDS011;67223;51.102;5.882;2023-04-30T04:40:53;1.20;;;1.17;;
78015;SDS011;67223;51.102;5.882;2023-04-30T04:43:19;14.80;;;2.28;;
78015;SDS011;67223;51.102;5.882;2023-04-30T04:45:44;2.87;;;2.07;;
78015;SDS011;67223;51.102;5.882;2023-04-30T04:48:11;2.30;;;2.05;;
78015;SDS011;67223;51.102;5.882;2023-04-30T04:50:36;2.80;;;2.55;;
78015;SDS011;67223;51.102;5.882;2023-04-30T04:53:02;2.57;;;2.00;;
78015;SDS011;67223;51.102;5.882;2023-04-30T04:55:27;2.87;;;2.60;;
78015;SDS011;67223;51.102;5.882;2023-04-30T04:57:53;5.63;;;2.33;;
78015;SDS011;67223;51.102;5.882;2023-04-30T05:00:18;3.28;;;1.98;;
78015;SDS011;67223;51.102;5.882;2023-04-30T05:02:46;3.00;;;2.67;;
78015;SDS011;67223;51.102;5.882;2023-04-30T05:05:11;2.63;;;2.42;;
78015;SDS011;67223;51.102;5.882;2023-04-30T05:07:37;2.00;;;1.73;;
78015;SDS011;67223;51.102;5.882;2023-04-30T05:10:02;2.60;;;2.40;;
78015;SDS011;67223;51.102;5.882;2023-04-30T05:12:28;2.07;;;1.73;;
78015;SDS011;67223;51.102;5.882;2023-04-30T05:14:53;2.17;;;1.43;;
78015;SDS011;67223;51.102;5.882;2023-04-30T05:17:19;4.33;;;1.93;;
78015;SDS011;67223;51.102;5.882;2023-04-30T05:19:45;1.33;;;1.23;;
78015;SDS011;67223;51.102;5.882;2023-04-30T05:22:11;1.70;;;1.60;;
78015;SDS011;67223;51.102;5.882;2023-04-30T05:24:37;3.03;;;2.20;;
78015;SDS011;67223;51.102;5.882;2023-04-30T05:27:02;2.70;;;2.30;;
78015;SDS011;67223;51.102;5.882;2023-04-30T05:29:29;2.20;;;2.00;;
78015;SDS011;67223;51.102;5.882;2023-04-30T05:31:54;2.55;;;2.30;;
78015;SDS011;67223;51.102;5.882;2023-04-30T05:34:23;2.13;;;2.00;;
78015;SDS011;67223;51.102;5.882;2023-04-30T05:36:49;2.72;;;2.15;;
78015;SDS011;67223;51.102;5.882;2023-04-30T05:39:14;1.87;;;1.77;;
78015;SDS011;67223;51.102;5.882;2023-04-30T05:41:40;2.30;;;2.10;;
78015;SDS011;67223;51.102;5.882;2023-04-30T05:44:08;3.10;;;2.80;;
78015;SDS011;67223;51.102;5.882;2023-04-30T05:46:34;1.97;;;1.70;;
78015;SDS011;67223;51.102;5.882;2023-04-30T05:48:59;1.80;;;1.65;;
78015;SDS011;67223;51.102;5.882;2023-04-30T05:51:25;2.65;;;2.45;;
78015;SDS011;67223;51.102;5.882;2023-04-30T05:53:52;2.30;;;2.10;;
78015;SDS011;67223;51.102;5.882;2023-04-30T05:56:18;3.00;;;2.70;;
78015;SDS011;67223;51.102;5.882;2023-04-30T05:58:43;2.25;;;1.83;;
78015;SDS011;67223;51.102;5.882;2023-04-30T06:01:09;1.83;;;1.73;;
78015;SDS011;67223;51.102;5.882;2023-04-30T06:03:35;2.38;;;1.98;;
78015;SDS011;67223;51.102;5.882;2023-04-30T06:06:02;3.77;;;1.60;;
78015;SDS011;67223;51.102;5.882;2023-04-30T06:08:27;3.55;;;2.63;;
78015;SDS011;67223;51.102;5.882;2023-04-30T06:10:53;2.70;;;2.50;;
78015;SDS011;67223;51.102;5.882;2023-04-30T06:13:19;3.27;;;2.03;;
78015;SDS011;67223;51.102;5.882;2023-04-30T06:15:45;6.88;;;2.70;;
78015;SDS011;67223;51.102;5.882;2023-04-30T06:18:11;2.77;;;2.10;;
78015;SDS011;67223;51.102;5.882;2023-04-30T06:20:38;4.05;;;2.65;;
78015;SDS011;67223;51.102;5.882;2023-04-30T06:23:04;3.25;;;2.55;;
78015;SDS011;67223;51.102;5.882;2023-04-30T06:25:29;5.03;;;2.20;;
78015;SDS011;67223;51.102;5.882;2023-04-30T06:27:54;2.80;;;2.37;;
78015;SDS011;67223;51.102;5.882;2023-04-30T06:30:20;2.63;;;2.30;;
78015;SDS011;67223;51.102;5.882;2023-04-30T06:32:45;2.28;;;1.98;;
78015;SDS011;67223;51.102;5.882;2023-04-30T06:35:11;2.80;;;2.53;;
78015;SDS011;67223;51.102;5.882;2023-04-30T06:37:36;3.97;;;2.67;;
78015;SDS011;67223;51.102;5.882;2023-04-30T06:40:05;1.65;;;1.55;;
78015;SDS011;67223;51.102;5.882;2023-04-30T06:42:31;2.50;;;2.20;;
78015;SDS011;67223;51.102;5.882;2023-04-30T06:45:01;3.47;;;2.40;;
78015;SDS011;67223;51.102;5.882;2023-04-30T06:47:29;3.08;;;2.28;;
78015;SDS011;67223;51.102;5.882;2023-04-30T06:50:02;5.72;;;1.50;;
78015;SDS011;67223;51.102;5.882;2023-04-30T06:52:29;2.75;;;1.77;;
78015;SDS011;67223;51.102;5.882;2023-04-30T06:54:54;3.77;;;2.37;;
78015;SDS011;67223;51.102;5.882;2023-04-30T06:57:20;3.03;;;2.22;;
78015;SDS011;67223;51.102;5.882;2023-04-30T06:59:46;2.70;;;2.50;;
78015;SDS011;67223;51.102;5.882;2023-04-30T07:02:11;2.17;;;1.88;;
78015;SDS011;67223;51.102;5.882;2023-04-30T07:04:37;2.50;;;2.30;;
78015;SDS011;67223;51.102;5.882;2023-04-30T07:07:02;2.07;;;1.90;;
78015;SDS011;67223;51.102;5.882;2023-04-30T07:09:28;2.20;;;1.98;;
78015;SDS011;67223;51.102;5.882;2023-04-30T07:11:54;5.65;;;2.75;;
78015;SDS011;67223;51.102;5.882;2023-04-30T07:14:21;1.73;;;1.63;;
78015;SDS011;67223;51.102;5.882;2023-04-30T07:16:48;4.20;;;2.73;;
78015;SDS011;67223;51.102;5.882;2023-04-30T07:19:14;2.25;;;2.00;;
78015;SDS011;67223;51.102;5.882;2023-04-30T07:21:40;2.77;;;2.57;;
78015;SDS011;67223;51.102;5.882;2023-04-30T07:24:06;1.80;;;1.70;;
78015;SDS011;67223;51.102;5.882;2023-04-30T07:26:32;3.90;;;2.10;;
78015;SDS011;67223;51.102;5.882;2023-04-30T07:28:57;2.03;;;1.92;;
78015;SDS011;67223;51.102;5.882;2023-04-30T07:31:23;1.93;;;1.83;;
78015;SDS011;67223;51.102;5.882;2023-04-30T07:33:50;2.50;;;2.28;;
78015;SDS011;67223;51.102;5.882;2023-04-30T07:36:16;2.75;;;2.55;;
78015;SDS011;67223;51.102;5.882;2023-04-30T07:38:41;2.57;;;2.37;;
78015;SDS011;67223;51.102;5.882;2023-04-30T07:41:07;2.87;;;2.47;;
78015;SDS011;67223;51.102;5.882;2023-04-30T07:43:33;5.20;;;2.97;;
78015;SDS011;67223;51.102;5.882;2023-04-30T07:45:59;1.40;;;1.30;;
78015;SDS011;67223;51.102;5.882;2023-04-30T07:48:25;2.63;;;2.10;;
78015;SDS011;67223;51.102;5.882;2023-04-30T07:50:51;3.72;;;3.35;;
78015;SDS011;67223;51.102;5.882;2023-04-30T07:53:16;2.47;;;2.27;;
78015;SDS011;67223;51.102;5.882;2023-04-30T07:55:42;2.13;;;2.00;;
78015;SDS011;67223;51.102;5.882;2023-04-30T07:58:11;1.60;;;1.50;;
78015;SDS011;67223;51.102;5.882;2023-04-30T08:00:37;2.15;;;1.90;;
78015;SDS011;67223;51.102;5.882;2023-04-30T08:03:02;4.60;;;2.43;;
78015;SDS011;67223;51.102;5.882;2023-04-30T08:05:28;3.90;;;1.90;;
78015;SDS011;67223;51.102;5.882;2023-04-30T08:07:53;2.75;;;1.70;;
78015;SDS011;67223;51.102;5.882;2023-04-30T08:10:19;2.27;;;2.07;;
78015;SDS011;67223;51.102;5.882;2023-04-30T08:12:44;2.43;;;2.23;;
78015;SDS011;67223;51.102;5.882;2023-04-30T08:15:10;1.77;;;1.67;;
78015;SDS011;67223;51.102;5.882;2023-04-30T08:17:36;2.50;;;2.15;;
78015;SDS011;67223;51.102;5.882;2023-04-30T08:20:02;2.23;;;1.93;;
78015;SDS011;67223;51.102;5.882;2023-04-30T08:22:28;3.40;;;1.88;;
78015;SDS011;67223;51.102;5.882;2023-04-30T08:24:54;3.23;;;2.83;;
78015;SDS011;67223;51.102;5.882;2023-04-30T08:27:20;1.92;;;1.70;;
78015;SDS011;67223;51.102;5.882;2023-04-30T08:29:46;1.97;;;1.70;;
78015;SDS011;67223;51.102;5.882;2023-04-30T08:32:11;2.08;;;1.95;;
78015;SDS011;67223;51.102;5.882;2023-04-30T08:34:38;1.80;;;1.70;;
78015;SDS011;67223;51.102;5.882;2023-04-30T08:37:07;3.23;;;1.30;;
78015;SDS011;67223;51.102;5.882;2023-04-30T08:39:33;1.50;;;1.40;;
78015;SDS011;67223;51.102;5.882;2023-04-30T08:42:00;2.27;;;1.70;;
78015;SDS011;67223;51.102;5.882;2023-04-30T08:44:27;3.40;;;1.77;;
78015;SDS011;67223;51.102;5.882;2023-04-30T08:46:54;1.52;;;1.42;;
78015;SDS011;67223;51.102;5.882;2023-04-30T08:49:22;1.27;;;1.20;;
78015;SDS011;67223;51.102;5.882;2023-04-30T08:51:48;2.00;;;1.03;;
78015;SDS011;67223;51.102;5.882;2023-04-30T08:54:14;2.10;;;2.00;;
78015;SDS011;67223;51.102;5.882;2023-04-30T08:56:43;6.75;;;2.17;;
78015;SDS011;67223;51.102;5.882;2023-04-30T08:59:09;1.77;;;1.67;;
78015;SDS011;67223;51.102;5.882;2023-04-30T09:01:36;0.85;;;0.85;;
78015;SDS011;67223;51.102;5.882;2023-04-30T09:04:02;1.53;;;1.30;;
78015;SDS011;67223;51.102;5.882;2023-04-30T09:06:28;3.13;;;2.63;;
78015;SDS011;67223;51.102;5.882;2023-04-30T09:08:55;2.28;;;1.95;;
78015;SDS011;67223;51.102;5.882;2023-04-30T09:11:23;1.13;;;1.13;;
78015;SDS011;67223;51.102;5.882;2023-04-30T09:13:51;1.30;;;1.20;;
78015;SDS011;67223;51.102;5.882;2023-04-30T09:16:18;1.10;;;1.10;;
78015;SDS011;67223;51.102;5.882;2023-04-30T09:18:44;1.30;;;1.20;;
78015;SDS011;67223;51.102;5.882;2023-04-30T09:21:10;2.30;;;1.67;;
78015;SDS011;67223;51.102;5.882;2023-04-30T09:23:36;1.60;;;1.40;;
78015;SDS011;67223;51.102;5.882;2023-04-30T09:26:01;1.65;;;1.55;;
78015;SDS011;67223;51.102;5.882;2023-04-30T09:28:27;1.03;;;0.97;;
78015;SDS011;67223;51.102;5.882;2023-04-30T09:30:55;1.52;;;1.20;;
78015;SDS011;67223;51.102;5.882;2023-04-30T09:33:21;1.97;;;1.70;;
78015;SDS011;67223;51.102;5.882;2023-04-30T09:35:47;1.23;;;1.13;;
78015;SDS011;67223;51.102;5.882;2023-04-30T09:38:26;1.67;;;1.25;;
78015;SDS011;67223;51.102;5.882;2023-04-30T09:40:56;1.13;;;1.13;;
78015;SDS011;67223;51.102;5.882;2023-04-30T09:43:24;1.53;;;1.43;;
78015;SDS011;67223;51.102;5.882;2023-04-30T09:45:50;0.88;;;0.88;;
78015;SDS011;67223;51.102;5.882;2023-04-30T09:48:26;1.70;;;1.60;;
78015;SDS011;67223;51.102;5.882;2023-04-30T09:50:55;1.80;;;1.05;;
78015;SDS011;67223;51.102;5.882;2023-04-30T09:53:21;1.10;;;1.10;;
78015;SDS011;67223;51.102;5.882;2023-04-30T09:55:48;0.80;;;0.80;;
78015;SDS011;67223;51.102;5.882;2023-04-30T09:58:15;1.40;;;1.30;;
78015;SDS011;67223;51.102;5.882;2023-04-30T10:00:44;1.42;;;1.33;;
78015;SDS011;67223;51.102;5.882;2023-04-30T10:03:14;0.87;;;0.87;;
78015;SDS011;67223;51.102;5.882;2023-04-30T10:05:46;0.82;;;0.82;;
78015;SDS011;67223;51.102;5.882;2023-04-30T10:11:25;1.38;;;1.27;;
78015;SDS011;67223;51.102;5.882;2023-04-30T10:16:36;5.90;;;1.27;;
78015;SDS011;67223;51.102;5.882;2023-04-30T10:19:28;1.00;;;1.00;;
78015;SDS011;67223;51.102;5.882;2023-04-30T10:21:56;0.90;;;0.90;;
78015;SDS011;67223;51.102;5.882;2023-04-30T10:24:22;1.48;;;1.38;;
78015;SDS011;67223;51.102;5.882;2023-04-30T10:26:48;0.80;;;0.80;;
78015;SDS011;67223;51.102;5.882;2023-04-30T10:29:15;2.45;;;1.48;;
78015;SDS011;67223;51.102;5.882;2023-04-30T10:31:48;1.02;;;1.02;;
78015;SDS011;67223;51.102;5.882;2023-04-30T10:37:20;0.77;;;0.77;;
78015;SDS011;67223;51.102;5.882;2023-04-30T10:39:53;2.53;;;1.52;;
78015;SDS011;67223;51.102;5.882;2023-04-30T10:42:19;1.20;;;1.10;;
78015;SDS011;67223;51.102;5.882;2023-04-30T10:44:45;3.03;;;1.30;;
78015;SDS011;67223;51.102;5.882;2023-04-30T10:47:10;1.17;;;1.08;;
78015;SDS011;67223;51.102;5.882;2023-04-30T10:49:36;1.80;;;1.20;;
78015;SDS011;67223;51.102;5.882;2023-04-30T10:52:02;1.30;;;1.27;;
78015;SDS011;67223;51.102;5.882;2023-04-30T10:54:32;1.20;;;1.10;;
78015;SDS011;67223;51.102;5.882;2023-04-30T10:57:12;0.93;;;0.93;;
78015;SDS011;67223;51.102;5.882;2023-04-30T10:59:51;0.97;;;0.97;;
78015;SDS011;67223;51.102;5.882;2023-04-30T11:02:18;0.82;;;0.82;;
78015;SDS011;67223;51.102;5.882;2023-04-30T11:07:31;0.80;;;0.80;;
78015;SDS011;67223;51.102;5.882;2023-04-30T11:09:57;1.20;;;0.87;;
78015;SDS011;67223;51.102;5.882;2023-04-30T11:12:25;2.97;;;1.17;;
78015;SDS011;67223;51.102;5.882;2023-04-30T11:15:13;0.90;;;0.90;;
78015;SDS011;67223;51.102;5.882;2023-04-30T11:17:44;1.75;;;1.08;;
78015;SDS011;67223;51.102;5.882;2023-04-30T11:20:12;1.17;;;1.08;;
78015;SDS011;67223;51.102;5.882;2023-04-30T11:22:42;1.07;;;1.03;;
78015;SDS011;67223;51.102;5.882;2023-04-30T11:25:09;0.70;;;0.70;;
78015;SDS011;67223;51.102;5.882;2023-04-30T11:27:38;1.17;;;1.10;;
78015;SDS011;67223;51.102;5.882;2023-04-30T11:30:10;1.17;;;1.08;;
78015;SDS011;67223;51.102;5.882;2023-04-30T11:32:39;0.88;;;0.88;;
78015;SDS011;67223;51.102;5.882;2023-04-30T11:35:05;0.63;;;0.63;;
78015;SDS011;67223;51.102;5.882;2023-04-30T11:37:32;0.60;;;0.60;;
78015;SDS011;67223;51.102;5.882;2023-04-30T11:40:02;0.80;;;0.80;;
78015;SDS011;67223;51.102;5.882;2023-04-30T11:42:33;3.08;;;1.10;;
78015;SDS011;67223;51.102;5.882;2023-04-30T11:45:16;0.93;;;0.93;;
78015;SDS011;67223;51.102;5.882;2023-04-30T11:47:45;1.17;;;1.17;;
78015;SDS011;67223;51.102;5.882;2023-04-30T11:50:13;0.70;;;0.70;;
78015;SDS011;67223;51.102;5.882;2023-04-30T11:52:40;0.93;;;0.90;;
78015;SDS011;67223;51.102;5.882;2023-04-30T11:55:11;1.23;;;0.95;;
78015;SDS011;67223;51.102;5.882;2023-04-30T11:57:39;0.80;;;0.80;;
78015;SDS011;67223;51.102;5.882;2023-04-30T12:00:06;0.60;;;0.60;;
78015;SDS011;67223;51.102;5.882;2023-04-30T12:02:42;0.90;;;0.90;;
78015;SDS011;67223;51.102;5.882;2023-04-30T12:05:18;0.90;;;0.90;;
78015;SDS011;67223;51.102;5.882;2023-04-30T12:08:04;1.00;;;1.00;;
78015;SDS011;67223;51.102;5.882;2023-04-30T12:10:33;1.08;;;0.98;;
78015;SDS011;67223;51.102;5.882;2023-04-30T12:13:02;0.80;;;0.80;;
78015;SDS011;67223;51.102;5.882;2023-04-30T12:15:28;1.10;;;1.02;;
78015;SDS011;67223;51.102;5.882;2023-04-30T12:17:57;0.97;;;0.97;;
78015;SDS011;67223;51.102;5.882;2023-04-30T12:20:28;0.90;;;0.90;;
78015;SDS011;67223;51.102;5.882;2023-04-30T12:22:55;7.55;;;2.13;;
78015;SDS011;67223;51.102;5.882;2023-04-30T12:25:22;1.87;;;1.50;;
78015;SDS011;67223;51.102;5.882;2023-04-30T12:27:48;0.80;;;0.80;;
78015;SDS011;67223;51.102;5.882;2023-04-30T12:30:18;0.90;;;0.90;;
78015;SDS011;67223;51.102;5.882;2023-04-30T12:32:44;1.13;;;1.10;;
78015;SDS011;67223;51.102;5.882;2023-04-30T12:35:15;1.35;;;1.25;;
78015;SDS011;67223;51.102;5.882;2023-04-30T12:37:46;0.97;;;0.97;;
78015;SDS011;67223;51.102;5.882;2023-04-30T12:40:15;6.07;;;1.38;;
78015;SDS011;67223;51.102;5.882;2023-04-30T12:42:43;1.20;;;1.10;;
78015;SDS011;67223;51.102;5.882;2023-04-30T12:45:11;1.17;;;1.10;;
78015;SDS011;67223;51.102;5.882;2023-04-30T12:47:40;2.13;;;1.33;;
78015;SDS011;67223;51.102;5.882;2023-04-30T12:52:38;0.77;;;0.77;;
78015;SDS011;67223;51.102;5.882;2023-04-30T13:00:43;4.75;;;1.30;;
78015;SDS011;67223;51.102;5.882;2023-04-30T13:03:11;1.13;;;1.03;;
78015;SDS011;67223;51.102;5.882;2023-04-30T13:05:37;0.90;;;0.90;;
78015;SDS011;67223;51.102;5.882;2023-04-30T13:08:03;1.00;;;1.00;;
78015;SDS011;67223;51.102;5.882;2023-04-30T13:10:33;1.40;;;1.30;;
78015;SDS011;67223;51.102;5.882;2023-04-30T13:12:58;0.80;;;0.80;;
78015;SDS011;67223;51.102;5.882;2023-04-30T13:15:24;1.00;;;1.00;;
78015;SDS011;67223;51.102;5.882;2023-04-30T13:17:50;0.77;;;0.77;;
78015;SDS011;67223;51.102;5.882;2023-04-30T13:20:17;1.33;;;1.20;;
78015;SDS011;67223;51.102;5.882;2023-04-30T13:22:43;0.90;;;0.90;;
78015;SDS011;67223;51.102;5.882;2023-04-30T13:25:08;0.75;;;0.75;;
78015;SDS011;67223;51.102;5.882;2023-04-30T13:27:36;1.95;;;1.17;;
78015;SDS011;67223;51.102;5.882;2023-04-30T13:30:02;1.23;;;1.13;;
78015;SDS011;67223;51.102;5.882;2023-04-30T13:32:28;1.23;;;1.20;;
78015;SDS011;67223;51.102;5.882;2023-04-30T13:34:54;1.00;;;1.00;;
78015;SDS011;67223;51.102;5.882;2023-04-30T13:37:20;1.08;;;1.08;;
78015;SDS011;67223;51.102;5.882;2023-04-30T13:39:46;0.65;;;0.65;;
78015;SDS011;67223;51.102;5.882;2023-04-30T13:42:12;0.70;;;0.70;;
78015;SDS011;67223;51.102;5.882;2023-04-30T13:44:38;1.40;;;1.30;;
78015;SDS011;67223;51.102;5.882;2023-04-30T13:47:04;0.97;;;0.97;;
78015;SDS011;67223;51.102;5.882;2023-04-30T13:49:31;0.95;;;0.95;;
78015;SDS011;67223;51.102;5.882;2023-04-30T13:51:59;0.82;;;0.82;;
78015;SDS011;67223;51.102;5.882;2023-04-30T13:54:24;1.00;;;1.00;;
78015;SDS011;67223;51.102;5.882;2023-04-30T13:56:50;1.02;;;1.02;;
78015;SDS011;67223;51.102;5.882;2023-04-30T13:59:16;1.30;;;1.23;;
78015;SDS011;67223;51.102;5.882;2023-04-30T14:01:43;0.80;;;0.80;;
78015;SDS011;67223;51.102;5.882;2023-04-30T14:04:08;1.30;;;1.20;;
78015;SDS011;67223;51.102;5.882;2023-04-30T14:06:34;1.00;;;1.00;;
78015;SDS011;67223;51.102;5.882;2023-04-30T14:09:00;1.25;;;1.15;;
78015;SDS011;67223;51.102;5.882;2023-04-30T14:11:26;0.83;;;0.83;;
78015;SDS011;67223;51.102;5.882;2023-04-30T14:13:51;1.10;;;1.10;;
78015;SDS011;67223;51.102;5.882;2023-04-30T14:16:17;1.07;;;1.07;;
78015;SDS011;67223;51.102;5.882;2023-04-30T14:18:43;0.90;;;0.90;;
78015;SDS011;67223;51.102;5.882;2023-04-30T14:21:09;0.90;;;0.90;;
78015;SDS011;67223;51.102;5.882;2023-04-30T14:23:35;0.90;;;0.90;;
78015;SDS011;67223;51.102;5.882;2023-04-30T14:26:02;1.15;;;1.10;;
78015;SDS011;67223;51.102;5.882;2023-04-30T14:28:28;1.05;;;1.05;;
78015;SDS011;67223;51.102;5.882;2023-04-30T14:30:54;0.77;;;0.77;;
78015;SDS011;67223;51.102;5.882;2023-04-30T14:33:19;1.23;;;1.17;;
78015;SDS011;67223;51.102;5.882;2023-04-30T14:35:45;1.33;;;1.23;;
78015;SDS011;67223;51.102;5.882;2023-04-30T14:38:11;1.30;;;1.20;;
78015;SDS011;67223;51.102;5.882;2023-04-30T14:40:37;1.00;;;1.00;;
78015;SDS011;67223;51.102;5.882;2023-04-30T14:43:03;1.13;;;1.13;;
78015;SDS011;67223;51.102;5.882;2023-04-30T14:45:29;0.70;;;0.70;;
78015;SDS011;67223;51.102;5.882;2023-04-30T14:47:56;2.05;;;1.58;;
78015;SDS011;67223;51.102;5.882;2023-04-30T14:50:22;0.90;;;0.90;;
78015;SDS011;67223;51.102;5.882;2023-04-30T14:52:48;0.85;;;0.80;;
78015;SDS011;67223;51.102;5.882;2023-04-30T14:55:13;3.10;;;1.13;;
78015;SDS011;67223;51.102;5.882;2023-04-30T14:57:39;1.47;;;0.90;;
78015;SDS011;67223;51.102;5.882;2023-04-30T15:00:05;0.85;;;0.85;;
78015;SDS011;67223;51.102;5.882;2023-04-30T15:02:31;1.20;;;1.10;;
78015;SDS011;67223;51.102;5.882;2023-04-30T15:04:56;0.70;;;0.70;;
78015;SDS011;67223;51.102;5.882;2023-04-30T15:07:22;1.13;;;0.90;;
78015;SDS011;67223;51.102;5.882;2023-04-30T15:09:47;1.53;;;1.43;;
78015;SDS011;67223;51.102;5.882;2023-04-30T15:12:13;1.10;;;1.10;;
78015;SDS011;67223;51.102;5.882;2023-04-30T15:14:39;0.93;;;0.93;;
78015;SDS011;67223;51.102;5.882;2023-04-30T15:17:05;1.00;;;1.00;;
78015;SDS011;67223;51.102;5.882;2023-04-30T15:19:31;0.70;;;0.70;;
78015;SDS011;67223;51.102;5.882;2023-04-30T15:21:56;0.80;;;0.80;;
78015;SDS011;67223;51.102;5.882;2023-04-30T15:24:22;1.00;;;1.00;;
78015;SDS011;67223;51.102;5.882;2023-04-30T15:26:47;1.45;;;0.98;;
78015;SDS011;67223;51.102;5.882;2023-04-30T15:29:15;1.00;;;1.00;;